Time;durP1;ratioP1;P1;durP2;ratioP2;P2;SDS_P1;SDS_P2;PMS_P1;PMS_P2;Temp;Humidity;BMP_temperature;BMP_pressure;BME280_temperature;BME280_humidity;BME280_pressure;Samples;Min_cycle;Max_cycle;Signal;HPM_P1;HPM_P2
2021/10/12 00:00:34;;;;;;;0.70;0.50;;;12.00;99.90;;;;;;5033262;28;20175;-69
2021/10/12 00:02:59;;;;;;;0.70;0.50;;;12.00;99.90;;;;;;5033661;28;20198;-69
2021/10/12 00:05:25;;;;;;;0.70;0.50;;;12.00;99.90;;;;;;5033204;28;20187;-70
2021/10/12 00:07:52;;;;;;;0.73;0.53;;;11.90;99.90;;;;;;5015583;28;20250;-69
2021/10/12 00:10:17;;;;;;;0.70;0.50;;;11.90;99.90;;;;;;5013761;28;20541;-70
2021/10/12 00:12:43;;;;;;;0.70;0.50;;;11.90;99.90;;;;;;5013473;28;20458;-68
2021/10/12 00:15:09;;;;;;;1.53;1.43;;;11.80;99.90;;;;;;5013229;28;20567;-69
2021/10/12 00:17:35;;;;;;;0.70;0.60;;;11.80;99.90;;;;;;5028497;28;20199;-69
2021/10/12 00:20:00;;;;;;;0.70;0.50;;;11.80;99.90;;;;;;5033303;28;20464;-69
2021/10/12 00:22:26;;;;;;;1.57;1.40;;;11.70;99.90;;;;;;5028446;28;20188;-69
2021/10/12 00:24:52;;;;;;;0.70;0.50;;;11.70;99.90;;;;;;5013083;28;20231;-69
2021/10/12 00:27:17;;;;;;;1.10;1.00;;;11.60;99.90;;;;;;5025500;28;20190;-70
2021/10/12 00:29:43;;;;;;;0.70;0.50;;;11.60;99.90;;;;;;5033039;28;20175;-68
2021/10/12 00:32:09;;;;;;;0.70;0.50;;;11.60;99.90;;;;;;5032965;28;20286;-69
2021/10/12 00:34:35;;;;;;;2.40;2.30;;;11.60;99.90;;;;;;5032848;28;20192;-69
2021/10/12 00:37:01;;;;;;;0.70;0.50;;;11.60;99.90;;;;;;5029950;28;20422;-69
2021/10/12 00:39:26;;;;;;;1.13;1.03;;;11.60;99.90;;;;;;5032882;28;20168;-69
2021/10/12 00:41:52;;;;;;;2.07;0.80;;;11.60;99.90;;;;;;5019458;28;20430;-69
2021/10/12 00:44:18;;;;;;;0.90;0.60;;;11.50;99.90;;;;;;5028481;28;20229;-70
2021/10/12 00:46:44;;;;;;;1.30;1.20;;;11.50;99.90;;;;;;5031918;28;20414;-70
2021/10/12 00:49:09;;;;;;;0.70;0.60;;;11.50;99.90;;;;;;5032367;28;20832;-69
2021/10/12 00:51:35;;;;;;;1.30;0.80;;;11.50;99.90;;;;;;5029394;28;20541;-69
2021/10/12 00:54:00;;;;;;;0.70;0.60;;;11.50;99.90;;;;;;5032064;28;20668;-69
2021/10/12 00:56:26;;;;;;;0.70;0.50;;;11.50;99.90;;;;;;5030468;28;20190;-71
2021/10/12 00:58:52;;;;;;;0.80;0.70;;;11.50;99.90;;;;;;5032294;28;20167;-69
2021/10/12 01:01:18;;;;;;;0.70;0.50;;;11.50;99.90;;;;;;5032502;28;20172;-69
2021/10/12 01:03:44;;;;;;;0.70;0.50;;;11.50;99.90;;;;;;5032384;28;20795;-69
2021/10/12 01:06:09;;;;;;;0.70;0.50;;;11.50;99.90;;;;;;5030569;28;20424;-69
2021/10/12 01:08:35;;;;;;;1.20;0.80;;;11.50;99.90;;;;;;5030762;28;20183;-69
2021/10/12 01:11:01;;;;;;;0.70;0.50;;;11.50;99.90;;;;;;5032228;28;20923;-70
2021/10/12 01:13:27;;;;;;;0.70;0.50;;;11.50;99.90;;;;;;5032251;28;20229;-71
2021/10/12 01:15:53;;;;;;;0.70;0.50;;;11.60;99.90;;;;;;5025031;28;20267;-70
2021/10/12 01:18:20;;;;;;;0.80;0.70;;;11.60;99.90;;;;;;5012527;28;20435;-69
2021/10/12 01:20:46;;;;;;;0.83;0.70;;;11.60;99.90;;;;;;5011615;28;20415;-69
2021/10/12 01:23:12;;;;;;;2.30;2.10;;;11.50;99.90;;;;;;5011032;28;20788;-69
2021/10/12 01:25:39;;;;;;;0.70;0.70;;;11.50;99.90;;;;;;5012034;28;20481;-69
2021/10/12 01:28:05;;;;;;;0.70;0.60;;;11.60;99.90;;;;;;5012353;28;20418;-69
2021/10/12 01:30:31;;;;;;;0.70;0.60;;;11.60;99.90;;;;;;5012242;28;20415;-69
2021/10/12 01:32:57;;;;;;;0.70;0.50;;;11.60;99.90;;;;;;5012263;28;20469;-69
2021/10/12 01:35:22;;;;;;;0.70;0.57;;;11.60;99.90;;;;;;5013021;28;20828;-69
2021/10/12 01:37:48;;;;;;;0.80;0.70;;;11.60;99.90;;;;;;5014387;28;20216;-69
2021/10/12 01:40:15;;;;;;;0.70;0.50;;;11.60;99.90;;;;;;5012179;28;20168;-70
2021/10/12 01:42:42;;;;;;;3.00;2.80;;;11.60;99.90;;;;;;5012289;28;20179;-69
2021/10/12 01:45:09;;;;;;;1.53;1.30;;;11.60;99.90;;;;;;5018506;28;20453;-70
2021/10/12 01:47:35;;;;;;;0.80;0.70;;;11.60;99.90;;;;;;5011056;28;20920;-69
2021/10/12 01:50:02;;;;;;;1.37;0.90;;;11.60;99.90;;;;;;5010854;28;20449;-70
2021/10/12 01:52:27;;;;;;;0.87;0.80;;;11.60;99.90;;;;;;5011938;28;20459;-69
2021/10/12 01:54:53;;;;;;;0.70;0.60;;;11.60;99.90;;;;;;5022110;28;20525;-70
2021/10/12 01:57:18;;;;;;;1.77;1.20;;;11.60;99.90;;;;;;5012708;28;20605;-70
2021/10/12 01:59:45;;;;;;;0.70;0.60;;;11.60;99.90;;;;;;5012126;28;20168;-70
2021/10/12 02:02:10;;;;;;;1.40;1.30;;;11.50;99.90;;;;;;5012109;28;20195;-69
2021/10/12 02:04:36;;;;;;;2.60;0.70;;;11.60;99.90;;;;;;5017798;28;20445;-70
2021/10/12 02:07:02;;;;;;;0.70;0.60;;;11.50;99.90;;;;;;5017163;28;20680;-69
2021/10/12 02:09:28;;;;;;;0.70;0.57;;;11.50;99.90;;;;;;5031406;28;20245;-70
2021/10/12 02:11:53;;;;;;;0.90;0.70;;;11.50;99.90;;;;;;5031529;28;20449;-69
2021/10/12 02:14:19;;;;;;;1.90;1.80;;;11.50;99.90;;;;;;5031559;28;20201;-70
2021/10/12 02:16:44;;;;;;;2.37;2.23;;;11.50;99.90;;;;;;5029619;28;20179;-69
2021/10/12 02:19:10;;;;;;;1.07;0.83;;;11.50;99.90;;;;;;5031607;28;20229;-70
2021/10/12 02:21:36;;;;;;;0.70;0.50;;;11.50;99.90;;;;;;5017651;28;20771;-69
2021/10/12 02:24:02;;;;;;;0.73;0.57;;;11.50;99.90;;;;;;5011760;28;20250;-69
2021/10/12 02:26:28;;;;;;;1.00;0.90;;;11.50;99.90;;;;;;5020393;28;20756;-69
2021/10/12 02:28:53;;;;;;;0.83;0.83;;;11.60;99.90;;;;;;5031563;28;20456;-69
2021/10/12 02:31:19;;;;;;;0.80;0.80;;;11.50;99.90;;;;;;5031475;28;20195;-70
2021/10/12 02:33:44;;;;;;;2.50;0.70;;;11.50;99.90;;;;;;5031401;28;20198;-69
2021/10/12 02:36:10;;;;;;;1.47;1.37;;;11.50;99.90;;;;;;5024244;28;20172;-69
2021/10/12 02:38:36;;;;;;;0.70;0.50;;;11.50;99.90;;;;;;5023581;28;20247;-69
2021/10/12 02:41:02;;;;;;;0.70;0.60;;;11.50;99.90;;;;;;5022019;28;20184;-69
2021/10/12 02:43:27;;;;;;;1.23;0.73;;;11.40;99.90;;;;;;5019578;28;20184;-70
2021/10/12 02:45:53;;;;;;;0.70;0.60;;;11.40;99.90;;;;;;5025650;28;20266;-70
2021/10/12 02:48:18;;;;;;;0.70;0.60;;;11.40;99.90;;;;;;5015377;28;20179;-70
2021/10/12 02:50:44;;;;;;;0.70;0.50;;;11.40;99.90;;;;;;5034903;28;20569;-71
2021/10/12 02:53:14;;;;;;;9.20;1.00;;;11.40;99.90;;;;;;5034884;28;20258;-70
2021/10/12 02:55:39;;;;;;;0.80;0.60;;;11.30;99.90;;;;;;5029063;28;20176;-69
2021/10/12 02:58:05;;;;;;;0.80;0.70;;;11.30;99.90;;;;;;5014963;28;20427;-70
2021/10/12 03:00:32;;;;;;;3.80;0.80;;;11.30;99.90;;;;;;5016041;28;20175;-70
2021/10/12 03:02:57;;;;;;;1.73;1.07;;;11.30;99.90;;;;;;5015092;28;20431;-70
2021/10/12 03:05:24;;;;;;;1.13;1.03;;;11.30;99.90;;;;;;5026849;28;20454;-70
2021/10/12 03:07:49;;;;;;;0.80;0.67;;;11.30;99.90;;;;;;5032933;28;20501;-70
2021/10/12 03:10:15;;;;;;;1.33;1.23;;;11.40;99.90;;;;;;5033006;28;20680;-71
2021/10/12 03:12:41;;;;;;;0.70;0.60;;;11.40;99.90;;;;;;5034494;28;20735;-70
2021/10/12 03:15:07;;;;;;;1.10;1.10;;;11.30;99.90;;;;;;5032849;28;20290;-71
2021/10/12 03:17:32;;;;;;;1.00;0.90;;;11.30;99.90;;;;;;5016952;28;20215;-70
2021/10/12 03:19:58;;;;;;;0.90;0.60;;;11.30;99.90;;;;;;5031737;28;20453;-70
2021/10/12 03:22:24;;;;;;;1.30;1.20;;;11.30;99.90;;;;;;5034435;28;20544;-69
2021/10/12 03:24:50;;;;;;;0.80;0.70;;;11.30;99.90;;;;;;5033977;28;20571;-69
2021/10/12 03:27:15;;;;;;;2.53;2.40;;;11.30;99.90;;;;;;5019420;28;20226;-69
2021/10/12 03:29:42;;;;;;;2.60;0.90;;;11.30;99.90;;;;;;5014620;28;20407;-69
2021/10/12 03:32:08;;;;;;;1.47;0.90;;;11.20;99.90;;;;;;5014412;28;20250;-69
2021/10/12 03:34:35;;;;;;;0.87;0.83;;;11.20;99.90;;;;;;5028454;28;20461;-70
2021/10/12 03:37:02;;;;;;;0.70;0.50;;;11.20;99.90;;;;;;5023850;28;20434;-70
2021/10/12 03:39:28;;;;;;;2.17;2.07;;;11.20;99.90;;;;;;5014279;28;20567;-69
2021/10/12 03:41:54;;;;;;;1.13;0.90;;;11.20;99.90;;;;;;5014166;28;20403;-69
2021/10/12 03:44:21;;;;;;;2.10;2.00;;;11.20;99.90;;;;;;5018504;28;20446;-71
2021/10/12 03:46:47;;;;;;;0.70;0.57;;;11.20;99.90;;;;;;5024217;28;20263;-70
2021/10/12 03:49:13;;;;;;;1.43;0.90;;;11.20;99.90;;;;;;5015188;28;20510;-70
2021/10/12 03:51:40;;;;;;;1.73;1.63;;;11.10;99.90;;;;;;5014060;28;20246;-70
2021/10/12 03:54:07;;;;;;;1.37;1.27;;;11.20;99.90;;;;;;5016421;28;20442;-71
2021/10/12 03:56:32;;;;;;;1.10;1.03;;;11.20;99.90;;;;;;5027333;28;20489;-71
2021/10/12 03:58:58;;;;;;;2.03;1.10;;;11.20;99.90;;;;;;5013818;28;20913;-70
2021/10/12 04:01:23;;;;;;;16.57;2.90;;;11.20;99.90;;;;;;5013895;28;20176;-70
2021/10/12 04:03:49;;;;;;;1.10;1.00;;;11.20;99.90;;;;;;5013437;28;20192;-69
2021/10/12 04:06:15;;;;;;;5.27;1.53;;;11.20;99.90;;;;;;5015637;28;20179;-71
2021/10/12 04:08:42;;;;;;;1.67;1.57;;;11.10;99.90;;;;;;5033496;28;20480;-70
2021/10/12 04:11:08;;;;;;;1.20;1.10;;;11.20;99.90;;;;;;5031476;28;20457;-70
2021/10/12 04:13:33;;;;;;;0.80;0.60;;;11.20;99.90;;;;;;5033412;28;20430;-71
2021/10/12 04:15:59;;;;;;;0.70;0.50;;;11.20;99.90;;;;;;5032791;28;20578;-69
2021/10/12 04:18:25;;;;;;;1.10;1.00;;;11.20;99.90;;;;;;5013650;28;20238;-70
2021/10/12 04:20:51;;;;;;;2.60;1.87;;;11.20;99.90;;;;;;5014749;28;20660;-70
2021/10/12 04:23:16;;;;;;;0.80;0.60;;;11.20;99.90;;;;;;5013406;28;20168;-70
2021/10/12 04:25:42;;;;;;;2.00;0.80;;;11.10;99.90;;;;;;5013140;28;20414;-70
2021/10/12 04:28:12;;;;;;;1.13;0.90;;;11.10;99.90;;;;;;5028646;28;20263;-70
2021/10/12 04:30:42;;;;;;;0.87;0.87;;;11.10;99.90;;;;;;5032942;28;20163;-70
2021/10/12 04:33:08;;;;;;;2.60;2.43;;;11.10;99.90;;;;;;5033314;28;20409;-71
2021/10/12 04:35:35;;;;;;;2.77;0.80;;;11.10;99.90;;;;;;5031095;28;20434;-70
2021/10/12 04:38:01;;;;;;;0.80;0.70;;;11.10;99.90;;;;;;5018151;28;20179;-70
2021/10/12 04:40:29;;;;;;;0.80;0.67;;;11.10;99.90;;;;;;5013211;28;20409;-72
2021/10/12 04:42:55;;;;;;;0.80;0.70;;;11.20;99.90;;;;;;5013112;28;20610;-70
2021/10/12 04:45:21;;;;;;;0.70;0.50;;;11.20;99.90;;;;;;5027471;28;20596;-71
2021/10/12 04:47:46;;;;;;;0.73;0.67;;;11.20;99.90;;;;;;5019389;28;20980;-70
2021/10/12 04:50:12;;;;;;;0.70;0.53;;;11.20;99.90;;;;;;5013111;28;20180;-69
2021/10/12 04:52:40;;;;;;;5.47;4.20;;;11.20;99.90;;;;;;5013984;28;20597;-70
2021/10/12 04:55:06;;;;;;;0.70;0.60;;;11.20;99.90;;;;;;5012718;28;20176;-70
2021/10/12 04:57:31;;;;;;;0.83;0.83;;;11.20;99.90;;;;;;5023599;28;20818;-71
2021/10/12 04:59:57;;;;;;;0.70;0.50;;;11.20;99.90;;;;;;5031288;28;20171;-71
2021/10/12 05:02:22;;;;;;;0.70;0.50;;;11.20;99.90;;;;;;5032577;28;20163;-69
2021/10/12 05:04:48;;;;;;;0.70;0.50;;;11.20;99.90;;;;;;5029482;28;20668;-70
2021/10/12 05:07:13;;;;;;;0.90;0.70;;;11.20;99.90;;;;;;5021681;28;20595;-70
2021/10/12 05:09:39;;;;;;;0.70;0.50;;;11.20;99.90;;;;;;5032218;28;20637;-71
2021/10/12 05:12:05;;;;;;;2.20;1.00;;;11.20;99.90;;;;;;5032374;28;20241;-70
2021/10/12 05:14:31;;;;;;;3.70;0.80;;;11.20;99.90;;;;;;5032231;28;20183;-70
2021/10/12 05:16:59;;;;;;;1.83;1.13;;;11.20;99.90;;;;;;5022311;28;20210;-71
2021/10/12 05:19:25;;;;;;;0.90;0.90;;;11.20;99.90;;;;;;5012671;28;20797;-70
2021/10/12 05:21:50;;;;;;;1.30;0.93;;;11.20;99.90;;;;;;5013683;28;20419;-71
2021/10/12 05:24:16;;;;;;;2.33;2.13;;;11.20;99.90;;;;;;5023777;28;20263;-70
2021/10/12 05:26:41;;;;;;;0.80;0.60;;;11.20;99.90;;;;;;5010940;28;20168;-71
2021/10/12 05:29:10;;;;;;;0.83;0.73;;;11.20;99.90;;;;;;5012339;28;20172;-71
2021/10/12 05:31:36;;;;;;;0.70;0.60;;;11.20;99.90;;;;;;5012375;28;20191;-70
2021/10/12 05:34:02;;;;;;;0.80;0.60;;;11.20;99.90;;;;;;5013321;28;20441;-70
2021/10/12 05:36:27;;;;;;;1.17;0.80;;;11.20;99.90;;;;;;5030818;28;20176;-71
2021/10/12 05:38:52;;;;;;;0.80;0.60;;;11.20;99.90;;;;;;5030162;28;20179;-69
2021/10/12 05:41:18;;;;;;;0.83;0.70;;;11.20;99.90;;;;;;5031986;28;20174;-69
2021/10/12 05:43:44;;;;;;;0.80;0.80;;;11.20;99.90;;;;;;5030229;28;20743;-71
2021/10/12 05:46:09;;;;;;;0.70;0.50;;;11.10;99.90;;;;;;5031672;28;20172;-71
2021/10/12 05:48:35;;;;;;;1.13;0.70;;;11.20;99.90;;;;;;5031912;28;20174;-71
2021/10/12 05:51:00;;;;;;;0.70;0.60;;;11.20;99.90;;;;;;5031695;28;20199;-71
2021/10/12 05:53:29;;;;;;;0.70;0.50;;;11.20;99.90;;;;;;5030126;28;20182;-70
2021/10/12 05:56:06;;;;;;;0.80;0.60;;;11.20;99.90;;;;;;5029569;28;20176;-71
2021/10/12 05:58:48;;;;;;;0.70;0.50;;;11.20;99.90;;;;;;5031891;28;20413;-72
2021/10/12 06:01:14;;;;;;;0.70;0.50;;;11.20;99.90;;;;;;5031828;28;20406;-70
2021/10/12 06:03:40;;;;;;;1.93;1.83;;;11.20;99.90;;;;;;5025273;28;20445;-71
2021/10/12 06:06:05;;;;;;;0.70;0.50;;;11.20;99.90;;;;;;5011758;28;20203;-71
2021/10/12 06:08:33;;;;;;;0.70;0.50;;;11.20;99.90;;;;;;5016172;28;20258;-71
2021/10/12 06:10:59;;;;;;;1.00;0.70;;;11.20;99.90;;;;;;5031577;28;20213;-71
2021/10/12 06:13:25;;;;;;;1.00;0.90;;;11.20;99.90;;;;;;5029953;28;20436;-71
2021/10/12 06:15:51;;;;;;;0.93;0.90;;;11.30;99.90;;;;;;5031438;28;20406;-72
2021/10/12 06:18:19;;;;;;;0.70;0.50;;;11.20;99.90;;;;;;5031624;28;20406;-71
2021/10/12 06:20:45;;;;;;;0.70;0.50;;;11.20;99.90;;;;;;5032276;28;20410;-71
2021/10/12 06:23:10;;;;;;;0.70;0.50;;;11.20;99.90;;;;;;5034952;28;20476;-72
2021/10/12 06:25:36;;;;;;;7.30;1.30;;;11.20;99.90;;;;;;5016455;28;20840;-71
2021/10/12 06:28:02;;;;;;;0.90;0.90;;;11.20;99.90;;;;;;5032147;28;20187;-70
2021/10/12 06:30:28;;;;;;;0.70;0.50;;;11.20;99.90;;;;;;5016255;28;20465;-72
2021/10/12 06:32:53;;;;;;;0.80;0.50;;;11.20;99.90;;;;;;5015457;28;20545;-72
2021/10/12 06:35:19;;;;;;;0.83;0.83;;;11.20;99.90;;;;;;5016183;28;20255;-71
2021/10/12 06:37:45;;;;;;;1.23;1.13;;;11.30;99.90;;;;;;5015546;28;20169;-72
2021/10/12 06:40:11;;;;;;;0.77;0.73;;;11.20;99.90;;;;;;5016533;28;20180;-72
2021/10/12 06:42:37;;;;;;;1.13;0.87;;;11.30;99.90;;;;;;5015263;28;20669;-72
2021/10/12 06:45:03;;;;;;;1.67;1.07;;;11.30;99.90;;;;;;5029920;28;20464;-72
2021/10/12 06:47:28;;;;;;;3.97;1.97;;;11.30;99.90;;;;;;5035054;28;20254;-71
2021/10/12 06:49:54;;;;;;;0.80;0.60;;;11.40;99.90;;;;;;5035035;28;20413;-71
2021/10/12 06:52:20;;;;;;;1.43;1.33;;;11.40;99.90;;;;;;5034954;28;20195;-71
2021/10/12 06:54:48;;;;;;;0.70;0.50;;;11.40;99.90;;;;;;5031084;28;20607;-69
2021/10/12 06:57:14;;;;;;;2.50;2.27;;;11.40;99.90;;;;;;5018377;28;20427;-71
2021/10/12 06:59:39;;;;;;;0.90;0.80;;;11.40;99.90;;;;;;5024418;28;20416;-71
2021/10/12 07:02:05;;;;;;;0.70;0.50;;;11.50;99.90;;;;;;5014647;28;20168;-72
2021/10/12 07:04:30;;;;;;;0.70;0.50;;;11.50;99.90;;;;;;5023686;28;20208;-72
2021/10/12 07:06:56;;;;;;;0.70;0.60;;;11.50;99.90;;;;;;5014222;28;20211;-72
2021/10/12 07:09:22;;;;;;;0.70;0.60;;;11.40;99.90;;;;;;5014371;28;20577;-72
2021/10/12 07:11:47;;;;;;;3.87;3.47;;;11.50;99.90;;;;;;5015178;28;20212;-72
2021/10/12 07:14:14;;;;;;;0.70;0.50;;;11.50;99.90;;;;;;5015495;28;20192;-72
2021/10/12 07:16:40;;;;;;;1.27;1.10;;;11.50;99.90;;;;;;5014049;28;20174;-72
2021/10/12 07:19:06;;;;;;;0.70;0.50;;;11.40;99.90;;;;;;5014098;28;20427;-71
2021/10/12 07:21:32;;;;;;;1.70;1.60;;;11.30;99.90;;;;;;5014632;28;20423;-71
2021/10/12 07:23:58;;;;;;;0.83;0.83;;;11.30;99.90;;;;;;5015655;28;20604;-71
2021/10/12 07:26:23;;;;;;;1.33;1.23;;;11.30;99.90;;;;;;5014321;28;20431;-72
2021/10/12 07:28:49;;;;;;;0.80;0.60;;;11.30;99.90;;;;;;5032759;28;20179;-71
2021/10/12 07:31:15;;;;;;;0.70;0.60;;;11.30;99.90;;;;;;5034114;28;20199;-71
2021/10/12 07:33:41;;;;;;;0.80;0.60;;;11.30;99.90;;;;;;5024864;28;20442;-71
2021/10/12 07:36:07;;;;;;;22.00;1.77;;;11.30;99.90;;;;;;5033898;28;20761;-71
2021/10/12 07:38:33;;;;;;;0.80;0.70;;;11.40;99.90;;;;;;5031764;28;20179;-71
2021/10/12 07:40:58;;;;;;;0.80;0.80;;;11.40;99.90;;;;;;5033293;28;20419;-72
2021/10/12 07:43:24;;;;;;;0.97;0.93;;;11.50;99.90;;;;;;5032485;28;20245;-72
2021/10/12 07:45:50;;;;;;;1.33;0.87;;;11.60;99.90;;;;;;5033785;28;20172;-72
2021/10/12 07:48:16;;;;;;;0.70;0.60;;;11.60;99.90;;;;;;5022450;28;20180;-72
2021/10/12 07:50:43;;;;;;;1.00;0.90;;;11.70;99.90;;;;;;5020287;28;20164;-73
2021/10/12 07:53:09;;;;;;;0.90;0.60;;;11.70;99.90;;;;;;5033820;28;20395;-72
2021/10/12 07:55:41;;;;;;;0.80;0.80;;;11.80;99.90;;;;;;5033517;28;20425;-72
2021/10/12 07:58:06;;;;;;;1.90;1.80;;;12.00;99.90;;;;;;5024382;28;20191;-72
2021/10/12 08:00:32;;;;;;;2.60;2.50;;;12.10;99.90;;;;;;5014081;28;20391;-73
2021/10/12 08:03:02;;;;;;;1.13;1.03;;;12.20;99.90;;;;;;5013913;28;20168;-72
2021/10/12 08:05:28;;;;;;;1.37;1.27;;;12.30;99.90;;;;;;5017006;28;20813;-70
2021/10/12 08:07:55;;;;;;;1.10;1.00;;;12.30;99.90;;;;;;5013849;28;20435;-71
2021/10/12 08:10:21;;;;;;;1.67;1.57;;;12.30;99.90;;;;;;5013785;28;20442;-71
2021/10/12 08:12:50;;;;;;;0.90;0.90;;;12.30;99.90;;;;;;5013573;28;20540;-73
2021/10/12 08:15:15;;;;;;;1.90;1.80;;;12.30;99.90;;;;;;5019389;28;20526;-72
2021/10/12 08:17:41;;;;;;;0.70;0.60;;;12.40;99.90;;;;;;5021271;28;20853;-72
2021/10/12 08:20:08;;;;;;;0.93;0.60;;;12.40;99.90;;;;;;5033258;28;20164;-72
2021/10/12 08:22:34;;;;;;;0.70;0.50;;;12.30;99.90;;;;;;5014630;28;20207;-72
2021/10/12 08:24:59;;;;;;;0.70;0.60;;;12.30;99.90;;;;;;5016626;28;20467;-72
2021/10/12 08:27:25;;;;;;;0.97;0.73;;;12.30;99.90;;;;;;5022340;28;20415;-73
2021/10/12 08:29:50;;;;;;;5.60;0.87;;;12.20;99.90;;;;;;5019928;28;20171;-70
2021/10/12 08:32:16;;;;;;;0.70;0.50;;;12.20;99.90;;;;;;5023514;28;20195;-71
2021/10/12 08:34:42;;;;;;;0.70;0.67;;;12.20;99.90;;;;;;5013753;28;20603;-71
2021/10/12 08:37:07;;;;;;;2.83;2.70;;;12.10;99.90;;;;;;5012835;28;20203;-71
2021/10/12 08:39:34;;;;;;;1.60;1.30;;;12.10;99.90;;;;;;5015612;28;20271;-72
2021/10/12 08:42:10;;;;;;;2.10;2.00;;;12.10;99.90;;;;;;5017878;28;20188;-70
2021/10/12 08:44:57;;;;;;;0.73;0.60;;;12.10;99.90;;;;;;5022866;28;20445;-72
2021/10/12 08:47:23;;;;;;;0.70;0.60;;;12.20;99.90;;;;;;5024781;28;20531;-71
2021/10/12 08:49:50;;;;;;;0.70;0.50;;;12.20;99.90;;;;;;5014575;28;20427;-72
2021/10/12 08:52:15;;;;;;;0.70;0.70;;;12.20;99.90;;;;;;5018919;28;20454;-71
2021/10/12 08:54:41;;;;;;;0.70;0.50;;;12.20;99.90;;;;;;5014895;28;20439;-71
2021/10/12 08:57:07;;;;;;;1.40;1.07;;;12.30;99.90;;;;;;5012696;28;20267;-73
2021/10/12 08:59:32;;;;;;;1.77;0.83;;;12.30;99.90;;;;;;5014869;28;20215;-72
2021/10/12 09:02:04;;;;;;;1.47;1.37;;;12.30;99.90;;;;;;5017149;28;20191;-73
2021/10/12 09:04:41;;;;;;;0.80;0.67;;;12.30;99.90;;;;;;5017323;28;20222;-72
2021/10/12 09:07:26;;;;;;;0.80;0.70;;;12.30;99.90;;;;;;5019344;28;20569;-72
2021/10/12 09:09:54;;;;;;;0.83;0.77;;;12.30;99.90;;;;;;5014766;28;20418;-72
2021/10/12 09:12:45;;;;;;;0.80;0.60;;;12.30;99.90;;;;;;5018203;28;20446;-73
2021/10/12 09:15:12;;;;;;;0.80;0.60;;;12.40;99.90;;;;;;5015915;28;20446;-71
2021/10/12 09:17:40;;;;;;;0.70;0.50;;;12.50;99.90;;;;;;5018820;28;20465;-70
2021/10/12 09:20:12;;;;;;;0.70;0.60;;;12.50;99.90;;;;;;5020945;28;20510;-71
2021/10/12 09:22:39;;;;;;;0.80;0.80;;;12.50;99.90;;;;;;5021716;28;20419;-71
2021/10/12 09:25:10;;;;;;;0.80;0.60;;;12.60;99.90;;;;;;5018809;28;21297;-71
2021/10/12 09:27:56;;;;;;;1.13;0.90;;;12.60;99.90;;;;;;5018727;28;20414;-71
2021/10/12 09:30:30;;;;;;;0.80;0.70;;;12.50;99.90;;;;;;5019253;28;20411;-71
2021/10/12 09:33:08;;;;;;;0.80;0.60;;;12.50;99.90;;;;;;5020407;28;20870;-72
2021/10/12 09:35:34;;;;;;;0.70;0.50;;;12.40;99.90;;;;;;5022555;28;20438;-70
2021/10/12 09:38:05;;;;;;;0.70;0.50;;;12.40;99.90;;;;;;5019382;28;20421;-71
2021/10/12 09:40:32;;;;;;;0.70;0.50;;;12.40;99.90;;;;;;5020745;28;20429;-71
2021/10/12 09:42:58;;;;;;;1.57;1.47;;;12.30;99.90;;;;;;5021838;28;20425;-71
2021/10/12 09:45:37;;;;;;;0.70;0.50;;;12.40;99.90;;;;;;5018493;28;20450;-71
2021/10/12 09:48:33;;;;;;;0.70;0.70;;;12.40;99.90;;;;;;5022279;28;20637;-71
2021/10/12 09:51:08;;;;;;;0.80;0.80;;;12.40;99.90;;;;;;5020207;28;20454;-72
2021/10/12 09:53:33;;;;;;;0.87;0.80;;;12.40;99.90;;;;;;5020229;28;20438;-71
2021/10/12 09:55:59;;;;;;;0.73;0.63;;;12.40;99.90;;;;;;5019612;28;20411;-72
2021/10/12 09:58:30;;;;;;;1.47;0.90;;;12.40;99.90;;;;;;5023883;28;20179;-71
2021/10/12 10:01:01;;;;;;;0.87;0.67;;;12.50;99.90;;;;;;5023926;28;20194;-72
2021/10/12 10:03:29;;;;;;;1.30;0.70;;;12.60;99.90;;;;;;5024630;28;20796;-71
2021/10/12 10:06:00;;;;;;;0.90;0.70;;;12.70;99.90;;;;;;5024140;28;20419;-71
2021/10/12 10:08:29;;;;;;;0.83;0.60;;;12.70;99.90;;;;;;5023553;28;20433;-72
2021/10/12 10:10:56;;;;;;;1.10;0.70;;;12.70;99.90;;;;;;5024751;28;20441;-71
2021/10/12 10:13:23;;;;;;;0.70;0.50;;;12.80;99.90;;;;;;5024975;28;20450;-72
2021/10/12 10:15:49;;;;;;;1.07;0.90;;;12.80;99.90;;;;;;5023020;28;20913;-70
2021/10/12 10:18:18;;;;;;;1.00;0.83;;;12.80;99.90;;;;;;5025858;28;20406;-71
2021/10/12 10:20:49;;;;;;;2.60;1.10;;;12.80;99.90;;;;;;5025733;28;20457;-71
2021/10/12 10:24:33;;;;;;;0.70;0.50;;;12.80;99.90;;;;;;5025684;28;20465;-71
2021/10/12 10:26:41;;;;;;;0.83;0.67;;;12.70;99.90;;;;;;5022670;28;20401;-72
2021/10/12 10:29:27;;;;;;;0.70;0.57;;;12.70;99.90;;;;;;5026226;28;21103;-71
2021/10/12 10:31:59;;;;;;;0.70;0.60;;;12.80;99.90;;;;;;5024143;28;21015;-72
2021/10/12 10:34:45;;;;;;;0.80;0.80;;;12.90;99.90;;;;;;5021559;28;20434;-73
2021/10/12 10:37:16;;;;;;;1.07;0.70;;;12.90;99.90;;;;;;5025781;28;20426;-73
2021/10/12 10:39:43;;;;;;;0.90;0.70;;;12.90;99.90;;;;;;5024521;28;20398;-73
2021/10/12 10:42:29;;;;;;;1.40;1.27;;;12.90;99.90;;;;;;5025911;28;20414;-72
2021/10/12 10:45:05;;;;;;;0.80;0.77;;;12.90;99.90;;;;;;5023759;28;20951;-71
2021/10/12 10:47:50;;;;;;;1.00;0.90;;;12.90;99.90;;;;;;5025823;28;20414;-72
2021/10/12 10:50:27;;;;;;;0.70;0.60;;;12.90;99.90;;;;;;5024122;28;20816;-73
2021/10/12 10:52:57;;;;;;;2.07;1.40;;;12.80;99.90;;;;;;5023339;28;20539;-73
2021/10/12 10:55:27;;;;;;;3.10;1.63;;;12.80;99.90;;;;;;5023077;28;20435;-74
2021/10/12 10:58:13;;;;;;;1.13;0.97;;;12.80;99.90;;;;;;5023275;28;21008;-74
2021/10/12 11:00:41;;;;;;;0.70;0.57;;;12.80;99.90;;;;;;5024356;28;20408;-74
2021/10/12 11:03:08;;;;;;;0.70;0.50;;;12.80;99.90;;;;;;5023025;28;20422;-74
2021/10/12 11:05:35;;;;;;;2.10;2.00;;;12.80;99.90;;;;;;5022700;28;20442;-74
2021/10/12 11:08:10;;;;;;;0.80;0.60;;;12.80;99.90;;;;;;5025423;28;20871;-73
2021/10/12 11:10:37;;;;;;;1.20;1.00;;;12.90;99.90;;;;;;5025147;28;20496;-73
2021/10/12 11:13:03;;;;;;;1.40;1.10;;;13.00;99.90;;;;;;5025074;28;20458;-76
2021/10/12 11:15:29;;;;;;;1.30;1.20;;;13.00;99.90;;;;;;5021583;28;20427;-74
2021/10/12 11:18:08;;;;;;;1.47;1.37;;;13.10;99.90;;;;;;5024708;28;20484;-73
2021/10/12 11:20:46;;;;;;;1.20;1.10;;;13.00;99.90;;;;;;5021937;28;20509;-74
2021/10/12 11:23:13;;;;;;;1.33;1.23;;;13.00;99.90;;;;;;5022761;28;20445;-74
2021/10/12 11:25:40;;;;;;;1.27;1.10;;;12.90;99.90;;;;;;5023778;28;20449;-73
2021/10/12 11:28:08;;;;;;;0.87;0.67;;;12.90;99.90;;;;;;5024763;28;20528;-73
2021/10/12 11:30:34;;;;;;;1.23;0.93;;;12.90;99.90;;;;;;5022959;28;20399;-74
2021/10/12 11:33:03;;;;;;;1.37;1.27;;;12.80;99.90;;;;;;5023231;28;20489;-74
2021/10/12 11:35:34;;;;;;;0.90;0.90;;;12.80;99.90;;;;;;5022043;28;20446;-73
2021/10/12 11:38:00;;;;;;;1.77;1.67;;;12.80;99.90;;;;;;5024073;28;20773;-71
2021/10/12 11:40:27;;;;;;;1.00;0.73;;;12.80;99.90;;;;;;5024501;28;20464;-74
2021/10/12 11:42:54;;;;;;;1.57;1.00;;;12.80;99.90;;;;;;5023034;28;20410;-73
2021/10/12 11:45:20;;;;;;;0.90;0.60;;;12.80;99.90;;;;;;5022601;28;20431;-73
2021/10/12 11:47:45;;;;;;;0.70;0.57;;;12.80;99.90;;;;;;5023273;28;20406;-74
2021/10/12 11:50:12;;;;;;;2.83;1.73;;;12.90;99.90;;;;;;5024655;28;20411;-73
2021/10/12 11:52:40;;;;;;;5.80;1.53;;;13.00;99.90;;;;;;5023051;28;20327;-74
2021/10/12 11:55:10;;;;;;;2.27;1.23;;;13.00;99.90;;;;;;5021852;28;20430;-73
2021/10/12 11:57:37;;;;;;;3.57;2.00;;;12.90;99.90;;;;;;5022555;28;20809;-73
2021/10/12 12:00:06;;;;;;;2.40;1.03;;;12.90;99.90;;;;;;5023084;28;20421;-73
2021/10/12 12:02:32;;;;;;;1.10;0.87;;;12.90;99.90;;;;;;5032706;28;20411;-73
2021/10/12 12:04:58;;;;;;;1.90;0.90;;;12.90;99.90;;;;;;5029676;28;20441;-72
2021/10/12 12:07:26;;;;;;;1.60;0.67;;;13.00;99.90;;;;;;5033703;28;20164;-73
2021/10/12 12:09:52;;;;;;;0.80;0.77;;;13.20;99.90;;;;;;5025115;28;20456;-71
2021/10/12 12:12:19;;;;;;;0.77;0.70;;;13.30;99.90;;;;;;5022837;28;20996;-71
2021/10/12 12:14:49;;;;;;;0.80;0.80;;;13.40;99.90;;;;;;5013920;28;20794;-74
2021/10/12 12:17:22;;;;;;;2.10;2.00;;;13.40;99.90;;;;;;5012923;28;20400;-72
2021/10/12 12:19:52;;;;;;;0.90;0.80;;;13.50;99.90;;;;;;5014904;28;20407;-72
2021/10/12 12:22:23;;;;;;;0.70;0.50;;;13.60;99.90;;;;;;5013668;28;20842;-72
2021/10/12 12:24:54;;;;;;;0.70;0.50;;;13.70;99.90;;;;;;5022389;28;20446;-72
2021/10/12 12:27:20;;;;;;;1.47;1.10;;;13.80;99.90;;;;;;5033350;28;20556;-72
2021/10/12 12:30:00;;;;;;;0.80;0.60;;;13.80;99.90;;;;;;5032038;28;20497;-72
2021/10/12 12:32:26;;;;;;;0.70;0.63;;;13.80;99.90;;;;;;5037877;28;20190;-71
2021/10/12 12:35:18;;;;;;;1.97;1.00;;;13.70;99.90;;;;;;5024032;28;20447;-73
2021/10/12 12:37:59;;;;;;;0.90;0.60;;;13.80;99.90;;;;;;5030855;28;20637;-73
2021/10/12 12:40:27;;;;;;;0.80;0.77;;;13.80;99.90;;;;;;5031724;28;20418;-73
2021/10/12 12:42:53;;;;;;;0.70;0.50;;;13.90;99.90;;;;;;5030887;28;20426;-73
2021/10/12 12:45:22;;;;;;;1.83;1.17;;;13.90;99.90;;;;;;5029281;28;20454;-72
2021/10/12 12:47:57;;;;;;;2.60;2.07;;;14.00;99.90;;;;;;5031667;28;20234;-73
2021/10/12 12:50:24;;;;;;;0.80;0.80;;;14.10;99.90;;;;;;5032819;28;20410;-72